sensor_id;sensor_type;location;lat;lon;timestamp;P1;durP1;ratioP1;P2;durP2;ratioP2
55655;SDS011;41530;52.382;5.270;2023-07-22T00:00:30;6.90;;;3.85;;
55655;SDS011;41530;52.382;5.270;2023-07-22T00:02:57;8.25;;;4.43;;
55655;SDS011;41530;52.382;5.270;2023-07-22T00:05:24;6.50;;;4.18;;
55655;SDS011;41530;52.382;5.270;2023-07-22T00:07:51;8.82;;;4.28;;
55655;SDS011;41530;52.382;5.270;2023-07-22T00:10:18;9.40;;;4.25;;
55655;SDS011;41530;52.382;5.270;2023-07-22T00:12:45;7.25;;;4.30;;
55655;SDS011;41530;52.382;5.270;2023-07-22T00:15:12;6.95;;;4.20;;
55655;SDS011;41530;52.382;5.270;2023-07-22T00:17:39;10.25;;;4.50;;
55655;SDS011;41530;52.382;5.270;2023-07-22T00:20:07;11.98;;;3.90;;
55655;SDS011;41530;52.382;5.270;2023-07-22T00:22:37;9.45;;;4.00;;
55655;SDS011;41530;52.382;5.270;2023-07-22T00:25:07;7.60;;;5.30;;
55655;SDS011;41530;52.382;5.270;2023-07-22T00:27:37;7.47;;;5.00;;
55655;SDS011;41530;52.382;5.270;2023-07-22T00:30:05;6.97;;;4.18;;
55655;SDS011;41530;52.382;5.270;2023-07-22T00:32:33;7.68;;;4.32;;
55655;SDS011;41530;52.382;5.270;2023-07-22T00:35:00;5.22;;;4.22;;
55655;SDS011;41530;52.382;5.270;2023-07-22T00:37:26;6.95;;;4.55;;
55655;SDS011;41530;52.382;5.270;2023-07-22T00:39:53;8.65;;;4.70;;
55655;SDS011;41530;52.382;5.270;2023-07-22T00:42:21;8.98;;;4.00;;
55655;SDS011;41530;52.382;5.270;2023-07-22T00:44:47;5.45;;;4.65;;
55655;SDS011;41530;52.382;5.270;2023-07-22T00:47:14;6.63;;;3.90;;
55655;SDS011;41530;52.382;5.270;2023-07-22T00:49:42;8.65;;;4.63;;
55655;SDS011;41530;52.382;5.270;2023-07-22T00:52:09;8.65;;;5.07;;
55655;SDS011;41530;52.382;5.270;2023-07-22T00:54:36;6.38;;;4.57;;
55655;SDS011;41530;52.382;5.270;2023-07-22T00:57:02;5.70;;;3.97;;
55655;SDS011;41530;52.382;5.270;2023-07-22T00:59:29;7.85;;;4.40;;
55655;SDS011;41530;52.382;5.270;2023-07-22T01:01:56;8.70;;;4.47;;
55655;SDS011;41530;52.382;5.270;2023-07-22T01:04:23;7.03;;;4.53;;
55655;SDS011;41530;52.382;5.270;2023-07-22T01:06:51;10.52;;;5.28;;
55655;SDS011;41530;52.382;5.270;2023-07-22T01:09:19;7.65;;;4.75;;
55655;SDS011;41530;52.382;5.270;2023-07-22T01:11:46;8.38;;;4.22;;
55655;SDS011;41530;52.382;5.270;2023-07-22T01:14:12;8.02;;;4.78;;
55655;SDS011;41530;52.382;5.270;2023-07-22T01:16:39;7.38;;;5.00;;
55655;SDS011;41530;52.382;5.270;2023-07-22T01:19:06;7.32;;;4.50;;
55655;SDS011;41530;52.382;5.270;2023-07-22T01:21:34;7.07;;;4.32;;
55655;SDS011;41530;52.382;5.270;2023-07-22T01:24:02;10.50;;;4.68;;
55655;SDS011;41530;52.382;5.270;2023-07-22T01:26:29;6.75;;;4.38;;
55655;SDS011;41530;52.382;5.270;2023-07-22T01:29:05;8.82;;;4.93;;
55655;SDS011;41530;52.382;5.270;2023-07-22T01:31:35;8.85;;;5.13;;
55655;SDS011;41530;52.382;5.270;2023-07-22T01:34:02;5.80;;;4.05;;
55655;SDS011;41530;52.382;5.270;2023-07-22T01:36:30;8.80;;;4.40;;
55655;SDS011;41530;52.382;5.270;2023-07-22T01:38:57;9.13;;;4.95;;
55655;SDS011;41530;52.382;5.270;2023-07-22T01:41:23;11.13;;;4.90;;
55655;SDS011;41530;52.382;5.270;2023-07-22T01:43:50;7.45;;;4.88;;
55655;SDS011;41530;52.382;5.270;2023-07-22T01:46:17;7.32;;;4.78;;
55655;SDS011;41530;52.382;5.270;2023-07-22T01:48:43;8.27;;;5.25;;
55655;SDS011;41530;52.382;5.270;2023-07-22T01:51:10;10.07;;;5.40;;
55655;SDS011;41530;52.382;5.270;2023-07-22T01:53:37;9.82;;;6.22;;
55655;SDS011;41530;52.382;5.270;2023-07-22T01:56:04;9.00;;;6.20;;
55655;SDS011;41530;52.382;5.270;2023-07-22T01:58:32;9.38;;;6.20;;
55655;SDS011;41530;52.382;5.270;2023-07-22T02:00:59;10.45;;;5.93;;
55655;SDS011;41530;52.382;5.270;2023-07-22T02:03:25;8.07;;;5.95;;
55655;SDS011;41530;52.382;5.270;2023-07-22T02:05:53;8.80;;;5.82;;
55655;SDS011;41530;52.382;5.270;2023-07-22T02:08:20;10.35;;;6.00;;
55655;SDS011;41530;52.382;5.270;2023-07-22T02:10:47;9.63;;;5.55;;
55655;SDS011;41530;52.382;5.270;2023-07-22T02:13:13;9.23;;;6.30;;
55655;SDS011;41530;52.382;5.270;2023-07-22T02:15:41;9.35;;;5.97;;
55655;SDS011;41530;52.382;5.270;2023-07-22T02:18:08;8.00;;;5.55;;
55655;SDS011;41530;52.382;5.270;2023-07-22T02:20:35;9.65;;;5.72;;
55655;SDS011;41530;52.382;5.270;2023-07-22T02:23:01;8.60;;;5.47;;
55655;SDS011;41530;52.382;5.270;2023-07-22T02:25:28;10.38;;;6.10;;
55655;SDS011;41530;52.382;5.270;2023-07-22T02:27:55;13.38;;;6.82;;
55655;SDS011;41530;52.382;5.270;2023-07-22T02:30:21;9.27;;;5.75;;
55655;SDS011;41530;52.382;5.270;2023-07-22T02:32:48;10.05;;;6.82;;
55655;SDS011;41530;52.382;5.270;2023-07-22T02:35:15;11.52;;;6.32;;
55655;SDS011;41530;52.382;5.270;2023-07-22T02:37:42;13.32;;;6.60;;
55655;SDS011;41530;52.382;5.270;2023-07-22T02:40:09;12.63;;;6.40;;
55655;SDS011;41530;52.382;5.270;2023-07-22T02:42:39;12.38;;;6.45;;
55655;SDS011;41530;52.382;5.270;2023-07-22T02:45:06;12.57;;;7.07;;
55655;SDS011;41530;52.382;5.270;2023-07-22T02:47:36;12.35;;;6.50;;
55655;SDS011;41530;52.382;5.270;2023-07-22T02:50:03;13.02;;;7.13;;
55655;SDS011;41530;52.382;5.270;2023-07-22T02:52:31;11.98;;;6.80;;
55655;SDS011;41530;52.382;5.270;2023-07-22T02:55:09;14.70;;;7.57;;
55655;SDS011;41530;52.382;5.270;2023-07-22T02:57:38;14.15;;;8.20;;
55655;SDS011;41530;52.382;5.270;2023-07-22T03:00:06;11.27;;;6.70;;
55655;SDS011;41530;52.382;5.270;2023-07-22T03:02:34;11.63;;;7.13;;
55655;SDS011;41530;52.382;5.270;2023-07-22T03:05:03;13.82;;;7.82;;
55655;SDS011;41530;52.382;5.270;2023-07-22T03:07:34;11.80;;;7.43;;
55655;SDS011;41530;52.382;5.270;2023-07-22T03:10:01;12.90;;;7.13;;
55655;SDS011;41530;52.382;5.270;2023-07-22T03:12:28;11.70;;;7.18;;
55655;SDS011;41530;52.382;5.270;2023-07-22T03:14:55;8.98;;;5.90;;
55655;SDS011;41530;52.382;5.270;2023-07-22T03:17:22;11.82;;;6.88;;
55655;SDS011;41530;52.382;5.270;2023-07-22T03:19:49;11.60;;;7.43;;
55655;SDS011;41530;52.382;5.270;2023-07-22T03:22:16;13.13;;;7.55;;
55655;SDS011;41530;52.382;5.270;2023-07-22T03:24:43;12.85;;;7.18;;
55655;SDS011;41530;52.382;5.270;2023-07-22T03:27:11;12.85;;;8.35;;
55655;SDS011;41530;52.382;5.270;2023-07-22T03:29:38;14.63;;;7.65;;
55655;SDS011;41530;52.382;5.270;2023-07-22T03:32:05;14.40;;;6.88;;
55655;SDS011;41530;52.382;5.270;2023-07-22T03:34:32;13.68;;;7.75;;
55655;SDS011;41530;52.382;5.270;2023-07-22T03:36:59;13.95;;;7.75;;
55655;SDS011;41530;52.382;5.270;2023-07-22T03:39:26;12.65;;;7.45;;
55655;SDS011;41530;52.382;5.270;2023-07-22T03:41:52;15.68;;;8.68;;
55655;SDS011;41530;52.382;5.270;2023-07-22T03:44:19;12.40;;;7.68;;
55655;SDS011;41530;52.382;5.270;2023-07-22T03:46:46;13.48;;;7.40;;
55655;SDS011;41530;52.382;5.270;2023-07-22T03:49:13;12.38;;;8.20;;
55655;SDS011;41530;52.382;5.270;2023-07-22T03:51:39;13.15;;;7.85;;
55655;SDS011;41530;52.382;5.270;2023-07-22T03:54:06;18.15;;;8.10;;
55655;SDS011;41530;52.382;5.270;2023-07-22T03:56:33;16.08;;;9.13;;
55655;SDS011;41530;52.382;5.270;2023-07-22T03:58:59;15.32;;;8.70;;
55655;SDS011;41530;52.382;5.270;2023-07-22T04:01:26;12.20;;;7.30;;
55655;SDS011;41530;52.382;5.270;2023-07-22T04:03:53;12.93;;;7.82;;
55655;SDS011;41530;52.382;5.270;2023-07-22T04:06:19;11.80;;;7.15;;
55655;SDS011;41530;52.382;5.270;2023-07-22T04:08:46;9.77;;;5.93;;
55655;SDS011;41530;52.382;5.270;2023-07-22T04:11:13;9.20;;;5.20;;
55655;SDS011;41530;52.382;5.270;2023-07-22T04:13:40;9.20;;;5.03;;
55655;SDS011;41530;52.382;5.270;2023-07-22T04:16:07;7.50;;;4.57;;
55655;SDS011;41530;52.382;5.270;2023-07-22T04:18:33;7.63;;;4.70;;
55655;SDS011;41530;52.382;5.270;2023-07-22T04:21:01;6.22;;;4.55;;
55655;SDS011;41530;52.382;5.270;2023-07-22T04:23:28;12.90;;;4.28;;
55655;SDS011;41530;52.382;5.270;2023-07-22T04:25:54;5.10;;;3.85;;
55655;SDS011;41530;52.382;5.270;2023-07-22T04:28:21;6.38;;;3.75;;
55655;SDS011;41530;52.382;5.270;2023-07-22T04:30:54;9.10;;;4.28;;
55655;SDS011;41530;52.382;5.270;2023-07-22T04:33:22;6.05;;;3.75;;
55655;SDS011;41530;52.382;5.270;2023-07-22T04:35:50;7.18;;;3.80;;
55655;SDS011;41530;52.382;5.270;2023-07-22T04:38:19;7.22;;;3.83;;
55655;SDS011;41530;52.382;5.270;2023-07-22T04:40:45;5.47;;;3.22;;
55655;SDS011;41530;52.382;5.270;2023-07-22T04:43:12;11.38;;;3.40;;
55655;SDS011;41530;52.382;5.270;2023-07-22T04:45:39;7.38;;;3.58;;
55655;SDS011;41530;52.382;5.270;2023-07-22T04:48:08;8.85;;;3.28;;
55655;SDS011;41530;52.382;5.270;2023-07-22T04:50:35;8.98;;;3.60;;
55655;SDS011;41530;52.382;5.270;2023-07-22T04:53:02;6.80;;;3.17;;
55655;SDS011;41530;52.382;5.270;2023-07-22T04:55:28;9.63;;;3.63;;
55655;SDS011;41530;52.382;5.270;2023-07-22T04:57:56;6.63;;;4.18;;
55655;SDS011;41530;52.382;5.270;2023-07-22T05:00:23;13.10;;;3.25;;
55655;SDS011;41530;52.382;5.270;2023-07-22T05:02:49;4.13;;;2.72;;
55655;SDS011;41530;52.382;5.270;2023-07-22T05:05:18;3.38;;;3.00;;
55655;SDS011;41530;52.382;5.270;2023-07-22T05:07:45;11.40;;;3.30;;
55655;SDS011;41530;52.382;5.270;2023-07-22T05:10:11;2.72;;;2.42;;
55655;SDS011;41530;52.382;5.270;2023-07-22T05:12:40;6.22;;;2.92;;
55655;SDS011;41530;52.382;5.270;2023-07-22T05:15:09;5.45;;;2.75;;
55655;SDS011;41530;52.382;5.270;2023-07-22T05:17:36;15.07;;;3.50;;
55655;SDS011;41530;52.382;5.270;2023-07-22T05:20:03;11.73;;;3.65;;
55655;SDS011;41530;52.382;5.270;2023-07-22T05:22:32;4.97;;;2.70;;
55655;SDS011;41530;52.382;5.270;2023-07-22T05:25:01;4.93;;;3.05;;
55655;SDS011;41530;52.382;5.270;2023-07-22T05:27:29;6.35;;;2.90;;
55655;SDS011;41530;52.382;5.270;2023-07-22T05:29:55;4.18;;;2.83;;
55655;SDS011;41530;52.382;5.270;2023-07-22T05:32:22;5.88;;;2.60;;
55655;SDS011;41530;52.382;5.270;2023-07-22T05:34:59;3.50;;;2.63;;
55655;SDS011;41530;52.382;5.270;2023-07-22T05:37:27;3.40;;;2.92;;
55655;SDS011;41530;52.382;5.270;2023-07-22T05:39:54;4.57;;;2.53;;
55655;SDS011;41530;52.382;5.270;2023-07-22T05:42:21;6.13;;;2.95;;
55655;SDS011;41530;52.382;5.270;2023-07-22T05:44:48;3.33;;;2.70;;
55655;SDS011;41530;52.382;5.270;2023-07-22T05:47:15;4.32;;;2.95;;
55655;SDS011;41530;52.382;5.270;2023-07-22T05:49:44;4.47;;;2.42;;
55655;SDS011;41530;52.382;5.270;2023-07-22T05:52:11;4.78;;;2.60;;
55655;SDS011;41530;52.382;5.270;2023-07-22T05:54:37;6.05;;;2.85;;
55655;SDS011;41530;52.382;5.270;2023-07-22T05:57:04;3.25;;;2.55;;
55655;SDS011;41530;52.382;5.270;2023-07-22T05:59:31;4.28;;;2.70;;
55655;SDS011;41530;52.382;5.270;2023-07-22T06:01:58;5.10;;;2.95;;
55655;SDS011;41530;52.382;5.270;2023-07-22T06:04:25;3.72;;;2.70;;
55655;SDS011;41530;52.382;5.270;2023-07-22T06:06:52;5.57;;;2.72;;
55655;SDS011;41530;52.382;5.270;2023-07-22T06:09:18;3.08;;;2.70;;
55655;SDS011;41530;52.382;5.270;2023-07-22T06:11:46;2.90;;;2.60;;
55655;SDS011;41530;52.382;5.270;2023-07-22T06:14:15;4.20;;;2.70;;
55655;SDS011;41530;52.382;5.270;2023-07-22T06:16:42;3.25;;;2.53;;
55655;SDS011;41530;52.382;5.270;2023-07-22T06:19:09;3.80;;;2.55;;
55655;SDS011;41530;52.382;5.270;2023-07-22T06:21:35;4.07;;;2.88;;
55655;SDS011;41530;52.382;5.270;2023-07-22T06:24:02;3.67;;;2.50;;
55655;SDS011;41530;52.382;5.270;2023-07-22T06:26:29;3.72;;;2.53;;
55655;SDS011;41530;52.382;5.270;2023-07-22T06:28:56;3.25;;;2.65;;
55655;SDS011;41530;52.382;5.270;2023-07-22T06:31:23;4.18;;;2.63;;
55655;SDS011;41530;52.382;5.270;2023-07-22T06:33:50;3.35;;;2.70;;
55655;SDS011;41530;52.382;5.270;2023-07-22T06:36:16;3.90;;;2.78;;
55655;SDS011;41530;52.382;5.270;2023-07-22T06:38:44;3.35;;;2.53;;
55655;SDS011;41530;52.382;5.270;2023-07-22T06:41:13;2.85;;;2.42;;
55655;SDS011;41530;52.382;5.270;2023-07-22T06:43:40;4.82;;;2.38;;
55655;SDS011;41530;52.382;5.270;2023-07-22T06:46:06;3.13;;;2.50;;
55655;SDS011;41530;52.382;5.270;2023-07-22T06:48:33;3.08;;;2.47;;
55655;SDS011;41530;52.382;5.270;2023-07-22T06:51:00;4.53;;;2.40;;
55655;SDS011;41530;52.382;5.270;2023-07-22T06:53:26;3.33;;;2.47;;
55655;SDS011;41530;52.382;5.270;2023-07-22T06:55:53;5.30;;;2.58;;
55655;SDS011;41530;52.382;5.270;2023-07-22T06:58:20;3.38;;;2.70;;
55655;SDS011;41530;52.382;5.270;2023-07-22T07:00:52;3.53;;;2.60;;
55655;SDS011;41530;52.382;5.270;2023-07-22T07:03:20;2.80;;;2.50;;
55655;SDS011;41530;52.382;5.270;2023-07-22T07:05:54;3.75;;;2.55;;
55655;SDS011;41530;52.382;5.270;2023-07-22T07:08:22;4.13;;;2.45;;
55655;SDS011;41530;52.382;5.270;2023-07-22T07:10:49;2.85;;;2.40;;
55655;SDS011;41530;52.382;5.270;2023-07-22T07:13:17;3.95;;;2.53;;
55655;SDS011;41530;52.382;5.270;2023-07-22T07:15:47;3.03;;;2.45;;
55655;SDS011;41530;52.382;5.270;2023-07-22T07:18:17;2.90;;;2.55;;
55655;SDS011;41530;52.382;5.270;2023-07-22T07:20:44;3.58;;;2.60;;
55655;SDS011;41530;52.382;5.270;2023-07-22T07:23:12;3.42;;;2.53;;
55655;SDS011;41530;52.382;5.270;2023-07-22T07:25:39;3.75;;;2.45;;
55655;SDS011;41530;52.382;5.270;2023-07-22T07:28:06;3.25;;;2.47;;
55655;SDS011;41530;52.382;5.270;2023-07-22T07:30:33;3.80;;;2.30;;
55655;SDS011;41530;52.382;5.270;2023-07-22T07:33:00;4.30;;;2.50;;
55655;SDS011;41530;52.382;5.270;2023-07-22T07:35:27;3.35;;;2.75;;
55655;SDS011;41530;52.382;5.270;2023-07-22T07:37:53;3.70;;;2.80;;
55655;SDS011;41530;52.382;5.270;2023-07-22T07:40:20;3.60;;;2.17;;
55655;SDS011;41530;52.382;5.270;2023-07-22T07:42:46;4.82;;;2.72;;
55655;SDS011;41530;52.382;5.270;2023-07-22T07:45:13;5.57;;;2.40;;
55655;SDS011;41530;52.382;5.270;2023-07-22T07:47:40;4.90;;;2.58;;
55655;SDS011;41530;52.382;5.270;2023-07-22T07:50:07;2.53;;;2.17;;
55655;SDS011;41530;52.382;5.270;2023-07-22T07:52:34;3.10;;;2.72;;
55655;SDS011;41530;52.382;5.270;2023-07-22T07:55:00;3.17;;;2.58;;
55655;SDS011;41530;52.382;5.270;2023-07-22T07:57:27;3.10;;;2.55;;
55655;SDS011;41530;52.382;5.270;2023-07-22T07:59:54;3.47;;;2.72;;
55655;SDS011;41530;52.382;5.270;2023-07-22T08:02:20;3.97;;;2.60;;
55655;SDS011;41530;52.382;5.270;2023-07-22T08:04:48;2.85;;;2.45;;
55655;SDS011;41530;52.382;5.270;2023-07-22T08:07:16;3.45;;;2.50;;
55655;SDS011;41530;52.382;5.270;2023-07-22T08:09:43;3.28;;;2.55;;
55655;SDS011;41530;52.382;5.270;2023-07-22T08:12:09;2.92;;;2.63;;
55655;SDS011;41530;52.382;5.270;2023-07-22T08:14:36;2.90;;;2.60;;
55655;SDS011;41530;52.382;5.270;2023-07-22T08:17:02;5.72;;;2.67;;
55655;SDS011;41530;52.382;5.270;2023-07-22T08:19:30;3.22;;;2.80;;
55655;SDS011;41530;52.382;5.270;2023-07-22T08:21:56;4.22;;;2.80;;
55655;SDS011;41530;52.382;5.270;2023-07-22T08:24:23;3.75;;;2.90;;
55655;SDS011;41530;52.382;5.270;2023-07-22T08:26:50;5.70;;;2.88;;
55655;SDS011;41530;52.382;5.270;2023-07-22T08:29:16;4.72;;;2.60;;
55655;SDS011;41530;52.382;5.270;2023-07-22T08:31:43;4.18;;;2.90;;
55655;SDS011;41530;52.382;5.270;2023-07-22T08:34:10;3.17;;;2.70;;
55655;SDS011;41530;52.382;5.270;2023-07-22T08:36:36;3.40;;;2.70;;
55655;SDS011;41530;52.382;5.270;2023-07-22T08:39:03;3.03;;;2.67;;
55655;SDS011;41530;52.382;5.270;2023-07-22T08:41:30;3.28;;;2.67;;
55655;SDS011;41530;52.382;5.270;2023-07-22T08:43:57;3.45;;;2.80;;
55655;SDS011;41530;52.382;5.270;2023-07-22T08:46:30;3.00;;;2.40;;
55655;SDS011;41530;52.382;5.270;2023-07-22T08:49:00;3.83;;;3.28;;
55655;SDS011;41530;52.382;5.270;2023-07-22T08:51:27;3.00;;;2.67;;
55655;SDS011;41530;52.382;5.270;2023-07-22T08:53:55;4.00;;;2.75;;
55655;SDS011;41530;52.382;5.270;2023-07-22T08:56:36;3.28;;;2.60;;
55655;SDS011;41530;52.382;5.270;2023-07-22T08:59:05;3.53;;;2.42;;
55655;SDS011;41530;52.382;5.270;2023-07-22T09:01:33;3.08;;;2.40;;
55655;SDS011;41530;52.382;5.270;2023-07-22T09:04:02;7.82;;;2.67;;
55655;SDS011;41530;52.382;5.270;2023-07-22T09:06:29;4.22;;;2.85;;
55655;SDS011;41530;52.382;5.270;2023-07-22T09:08:57;3.75;;;3.00;;
55655;SDS011;41530;52.382;5.270;2023-07-22T09:11:25;3.60;;;2.85;;
55655;SDS011;41530;52.382;5.270;2023-07-22T09:13:52;3.67;;;2.75;;
55655;SDS011;41530;52.382;5.270;2023-07-22T09:16:20;3.92;;;2.53;;
55655;SDS011;41530;52.382;5.270;2023-07-22T09:18:48;5.07;;;2.85;;
55655;SDS011;41530;52.382;5.270;2023-07-22T09:21:14;3.72;;;2.67;;
55655;SDS011;41530;52.382;5.270;2023-07-22T09:23:41;2.92;;;2.63;;
55655;SDS011;41530;52.382;5.270;2023-07-22T09:26:08;3.10;;;2.80;;
55655;SDS011;41530;52.382;5.270;2023-07-22T09:28:49;4.85;;;2.40;;
55655;SDS011;41530;52.382;5.270;2023-07-22T09:31:26;4.18;;;2.60;;
55655;SDS011;41530;52.382;5.270;2023-07-22T09:33:54;3.75;;;3.13;;
55655;SDS011;41530;52.382;5.270;2023-07-22T09:36:21;3.15;;;2.80;;
55655;SDS011;41530;52.382;5.270;2023-07-22T09:38:59;3.63;;;2.85;;
55655;SDS011;41530;52.382;5.270;2023-07-22T09:41:29;3.88;;;2.80;;
55655;SDS011;41530;52.382;5.270;2023-07-22T09:43:56;3.65;;;2.78;;
55655;SDS011;41530;52.382;5.270;2023-07-22T09:46:24;3.30;;;2.58;;
55655;SDS011;41530;52.382;5.270;2023-07-22T09:49:00;3.50;;;2.90;;
55655;SDS011;41530;52.382;5.270;2023-07-22T09:51:36;2.90;;;2.60;;
55655;SDS011;41530;52.382;5.270;2023-07-22T09:54:22;3.05;;;2.50;;
55655;SDS011;41530;52.382;5.270;2023-07-22T09:56:49;3.40;;;2.80;;
55655;SDS011;41530;52.382;5.270;2023-07-22T09:59:19;3.13;;;2.67;;
55655;SDS011;41530;52.382;5.270;2023-07-22T10:01:49;2.85;;;2.55;;
55655;SDS011;41530;52.382;5.270;2023-07-22T10:04:18;3.70;;;2.28;;
55655;SDS011;41530;52.382;5.270;2023-07-22T10:06:47;4.03;;;3.17;;
55655;SDS011;41530;52.382;5.270;2023-07-22T10:09:15;2.83;;;2.60;;
55655;SDS011;41530;52.382;5.270;2023-07-22T10:11:43;2.80;;;2.53;;
55655;SDS011;41530;52.382;5.270;2023-07-22T10:14:10;2.88;;;2.50;;
55655;SDS011;41530;52.382;5.270;2023-07-22T10:16:40;2.70;;;2.50;;
55655;SDS011;41530;52.382;5.270;2023-07-22T10:19:07;3.63;;;2.90;;
55655;SDS011;41530;52.382;5.270;2023-07-22T10:21:36;3.42;;;2.90;;
55655;SDS011;41530;52.382;5.270;2023-07-22T10:24:04;3.00;;;2.70;;
55655;SDS011;41530;52.382;5.270;2023-07-22T10:26:31;3.17;;;2.58;;
55655;SDS011;41530;52.382;5.270;2023-07-22T10:29:13;3.10;;;2.63;;
55655;SDS011;41530;52.382;5.270;2023-07-22T10:31:40;3.10;;;2.38;;
55655;SDS011;41530;52.382;5.270;2023-07-22T10:34:07;3.15;;;2.28;;
55655;SDS011;41530;52.382;5.270;2023-07-22T10:36:34;4.60;;;2.47;;
55655;SDS011;41530;52.382;5.270;2023-07-22T10:39:02;2.80;;;2.40;;
55655;SDS011;41530;52.382;5.270;2023-07-22T10:41:30;3.45;;;2.60;;
55655;SDS011;41530;52.382;5.270;2023-07-22T10:43:58;3.15;;;2.63;;
55655;SDS011;41530;52.382;5.270;2023-07-22T10:46:33;3.25;;;2.70;;
55655;SDS011;41530;52.382;5.270;2023-07-22T10:49:11;3.42;;;2.17;;
55655;SDS011;41530;52.382;5.270;2023-07-22T10:51:49;3.20;;;2.33;;
55655;SDS011;41530;52.382;5.270;2023-07-22T10:54:33;2.92;;;2.17;;
55655;SDS011;41530;52.382;5.270;2023-07-22T10:57:23;2.65;;;2.40;;
55655;SDS011;41530;52.382;5.270;2023-07-22T10:59:51;3.10;;;2.58;;
55655;SDS011;41530;52.382;5.270;2023-07-22T11:02:29;2.70;;;2.25;;
55655;SDS011;41530;52.382;5.270;2023-07-22T11:04:56;2.75;;;2.20;;
55655;SDS011;41530;52.382;5.270;2023-07-22T11:07:29;2.95;;;2.38;;
55655;SDS011;41530;52.382;5.270;2023-07-22T11:09:57;2.47;;;2.00;;
55655;SDS011;41530;52.382;5.270;2023-07-22T11:12:24;3.33;;;2.38;;
55655;SDS011;41530;52.382;5.270;2023-07-22T11:15:27;3.20;;;2.17;;
55655;SDS011;41530;52.382;5.270;2023-07-22T11:17:45;2.30;;;2.10;;
55655;SDS011;41530;52.382;5.270;2023-07-22T11:20:11;5.68;;;2.10;;
55655;SDS011;41530;52.382;5.270;2023-07-22T11:22:41;2.67;;;2.00;;
55655;SDS011;41530;52.382;5.270;2023-07-22T11:25:16;3.00;;;2.20;;
55655;SDS011;41530;52.382;5.270;2023-07-22T11:27:43;2.78;;;2.20;;
55655;SDS011;41530;52.382;5.270;2023-07-22T11:30:11;2.83;;;1.88;;
55655;SDS011;41530;52.382;5.270;2023-07-22T11:32:41;2.28;;;1.98;;
55655;SDS011;41530;52.382;5.270;2023-07-22T11:35:09;3.28;;;1.90;;
55655;SDS011;41530;52.382;5.270;2023-07-22T11:37:36;2.45;;;2.08;;
55655;SDS011;41530;52.382;5.270;2023-07-22T11:40:03;3.50;;;2.58;;
55655;SDS011;41530;52.382;5.270;2023-07-22T11:42:30;2.55;;;2.00;;
55655;SDS011;41530;52.382;5.270;2023-07-22T11:45:00;2.55;;;1.90;;
55655;SDS011;41530;52.382;5.270;2023-07-22T11:47:30;2.20;;;2.00;;
55655;SDS011;41530;52.382;5.270;2023-07-22T11:50:00;2.17;;;1.98;;
55655;SDS011;41530;52.382;5.270;2023-07-22T11:52:27;2.30;;;2.00;;
55655;SDS011;41530;52.382;5.270;2023-07-22T11:54:53;3.10;;;2.20;;
55655;SDS011;41530;52.382;5.270;2023-07-22T11:57:27;2.97;;;1.80;;
55655;SDS011;41530;52.382;5.270;2023-07-22T11:59:55;1.92;;;1.73;;
55655;SDS011;41530;52.382;5.270;2023-07-22T12:02:23;2.10;;;1.77;;
55655;SDS011;41530;52.382;5.270;2023-07-22T12:05:02;1.88;;;1.73;;
55655;SDS011;41530;52.382;5.270;2023-07-22T12:07:35;2.50;;;1.67;;
55655;SDS011;41530;52.382;5.270;2023-07-22T12:10:07;2.10;;;1.90;;
55655;SDS011;41530;52.382;5.270;2023-07-22T12:20:19;2.28;;;2.03;;
55655;SDS011;41530;52.382;5.270;2023-07-22T12:22:50;2.00;;;1.80;;
55655;SDS011;41530;52.382;5.270;2023-07-22T12:25:17;2.58;;;1.67;;
55655;SDS011;41530;52.382;5.270;2023-07-22T12:27:44;2.42;;;1.77;;
55655;SDS011;41530;52.382;5.270;2023-07-22T12:30:11;2.08;;;1.90;;
55655;SDS011;41530;52.382;5.270;2023-07-22T12:32:38;2.25;;;1.88;;
55655;SDS011;41530;52.382;5.270;2023-07-22T12:35:05;1.95;;;1.80;;
55655;SDS011;41530;52.382;5.270;2023-07-22T12:37:33;1.70;;;1.60;;
55655;SDS011;41530;52.382;5.270;2023-07-22T12:40:00;2.10;;;1.90;;
55655;SDS011;41530;52.382;5.270;2023-07-22T12:42:26;1.83;;;1.60;;
55655;SDS011;41530;52.382;5.270;2023-07-22T12:44:53;2.35;;;1.40;;
55655;SDS011;41530;52.382;5.270;2023-07-22T12:47:19;1.83;;;1.60;;
55655;SDS011;41530;52.382;5.270;2023-07-22T12:49:46;1.95;;;1.75;;
55655;SDS011;41530;52.382;5.270;2023-07-22T12:52:13;1.83;;;1.65;;
55655;SDS011;41530;52.382;5.270;2023-07-22T12:54:40;2.05;;;1.40;;
55655;SDS011;41530;52.382;5.270;2023-07-22T12:57:07;3.80;;;1.60;;
55655;SDS011;41530;52.382;5.270;2023-07-22T12:59:34;1.67;;;1.55;;
55655;SDS011;41530;52.382;5.270;2023-07-22T13:02:00;2.78;;;1.70;;
55655;SDS011;41530;52.382;5.270;2023-07-22T13:04:27;1.67;;;1.48;;
55655;SDS011;41530;52.382;5.270;2023-07-22T13:06:54;2.00;;;1.30;;
55655;SDS011;41530;52.382;5.270;2023-07-22T13:09:20;1.95;;;1.60;;
55655;SDS011;41530;52.382;5.270;2023-07-22T13:11:47;2.58;;;1.60;;
55655;SDS011;41530;52.382;5.270;2023-07-22T13:14:14;1.95;;;1.50;;
55655;SDS011;41530;52.382;5.270;2023-07-22T13:16:41;3.08;;;2.00;;
55655;SDS011;41530;52.382;5.270;2023-07-22T13:19:08;1.85;;;1.70;;
55655;SDS011;41530;52.382;5.270;2023-07-22T13:21:35;1.90;;;1.50;;
55655;SDS011;41530;52.382;5.270;2023-07-22T13:24:02;2.10;;;1.55;;
55655;SDS011;41530;52.382;5.270;2023-07-22T13:26:28;2.90;;;1.50;;
55655;SDS011;41530;52.382;5.270;2023-07-22T13:28:55;1.63;;;1.40;;
55655;SDS011;41530;52.382;5.270;2023-07-22T13:31:22;1.92;;;1.70;;
55655;SDS011;41530;52.382;5.270;2023-07-22T13:33:48;1.65;;;1.50;;
55655;SDS011;41530;52.382;5.270;2023-07-22T13:36:15;2.47;;;1.50;;
55655;SDS011;41530;52.382;5.270;2023-07-22T13:38:42;1.77;;;1.60;;
55655;SDS011;41530;52.382;5.270;2023-07-22T13:41:08;1.35;;;1.20;;
55655;SDS011;41530;52.382;5.270;2023-07-22T13:43:35;1.42;;;1.30;;
55655;SDS011;41530;52.382;5.270;2023-07-22T13:46:02;3.15;;;1.25;;
55655;SDS011;41530;52.382;5.270;2023-07-22T13:48:29;1.40;;;1.30;;
55655;SDS011;41530;52.382;5.270;2023-07-22T13:50:55;1.33;;;1.17;;
55655;SDS011;41530;52.382;5.270;2023-07-22T13:53:22;1.30;;;1.17;;
55655;SDS011;41530;52.382;5.270;2023-07-22T13:55:49;1.40;;;1.30;;
55655;SDS011;41530;52.382;5.270;2023-07-22T13:58:18;1.52;;;1.30;;
55655;SDS011;41530;52.382;5.270;2023-07-22T14:00:45;2.00;;;1.40;;
55655;SDS011;41530;52.382;5.270;2023-07-22T14:03:12;1.60;;;1.30;;
55655;SDS011;41530;52.382;5.270;2023-07-22T14:05:38;2.05;;;1.23;;
55655;SDS011;41530;52.382;5.270;2023-07-22T14:08:05;2.67;;;1.45;;
55655;SDS011;41530;52.382;5.270;2023-07-22T14:10:31;1.90;;;1.38;;
55655;SDS011;41530;52.382;5.270;2023-07-22T14:12:58;1.85;;;1.45;;
55655;SDS011;41530;52.382;5.270;2023-07-22T14:15:25;1.70;;;1.55;;
55655;SDS011;41530;52.382;5.270;2023-07-22T14:17:51;1.42;;;1.15;;
55655;SDS011;41530;52.382;5.270;2023-07-22T14:20:18;2.17;;;1.30;;
55655;SDS011;41530;52.382;5.270;2023-07-22T14:22:45;1.30;;;1.08;;
55655;SDS011;41530;52.382;5.270;2023-07-22T14:25:12;2.30;;;1.40;;
55655;SDS011;41530;52.382;5.270;2023-07-22T14:27:39;1.42;;;1.20;;
55655;SDS011;41530;52.382;5.270;2023-07-22T14:30:06;2.15;;;1.30;;
55655;SDS011;41530;52.382;5.270;2023-07-22T14:32:34;1.50;;;1.40;;
55655;SDS011;41530;52.382;5.270;2023-07-22T14:35:02;1.20;;;1.10;;
55655;SDS011;41530;52.382;5.270;2023-07-22T14:37:30;1.75;;;1.30;;
55655;SDS011;41530;52.382;5.270;2023-07-22T14:39:57;1.05;;;1.00;;
55655;SDS011;41530;52.382;5.270;2023-07-22T14:42:24;1.73;;;1.30;;
55655;SDS011;41530;52.382;5.270;2023-07-22T14:44:50;2.90;;;1.45;;
55655;SDS011;41530;52.382;5.270;2023-07-22T14:47:17;1.70;;;1.27;;
55655;SDS011;41530;52.382;5.270;2023-07-22T14:49:44;1.42;;;1.17;;
55655;SDS011;41530;52.382;5.270;2023-07-22T14:52:10;1.50;;;1.30;;
55655;SDS011;41530;52.382;5.270;2023-07-22T14:54:37;1.10;;;0.98;;
55655;SDS011;41530;52.382;5.270;2023-07-22T14:57:04;1.58;;;1.23;;